createdAt,value
2022-10-14T00:01:43.616Z,17.23
2022-10-14T00:04:09.942Z,15.45
2022-10-14T00:06:36.328Z,13.70
2022-10-14T00:09:06.706Z,15.52
2022-10-14T00:11:33.998Z,13.83
2022-10-14T00:14:06.617Z,17.17
2022-10-14T00:16:36.333Z,23.33
2022-10-14T00:19:04.108Z,18.85
2022-10-14T00:21:30.540Z,26.25
2022-10-14T00:23:57.712Z,23.55
2022-10-14T00:26:27.552Z,26.25
2022-10-14T00:28:54.684Z,20.38
2022-10-14T00:31:21.218Z,20.80
2022-10-14T00:33:48.097Z,20.05
2022-10-14T00:36:17.245Z,20.50
2022-10-14T00:38:45.355Z,22.60
2022-10-14T00:41:14.090Z,20.23
2022-10-14T00:44:00.086Z,25.27
2022-10-14T00:46:29.881Z,19.80
2022-10-14T00:48:57.521Z,18.52
2022-10-14T00:51:24.334Z,20.17
2022-10-14T00:53:51.166Z,20.88
2022-10-14T00:56:22.109Z,21.70
2022-10-14T00:58:48.506Z,20.25
2022-10-14T01:01:14.964Z,20.00
2022-10-14T01:03:41.954Z,19.73
2022-10-14T01:06:14.306Z,21.33
2022-10-14T01:08:48.995Z,21.20
2022-10-14T01:11:33.967Z,23.38
2022-10-14T01:14:15.430Z,21.30
2022-10-14T01:16:57.422Z,18.20
2022-10-14T01:19:57.898Z,19.95
2022-10-14T01:22:35.366Z,21.20
2022-10-14T01:25:15.382Z,20.25
2022-10-14T01:28:07.621Z,21.67
2022-10-14T01:30:42.389Z,20.27
2022-10-14T01:33:18.469Z,20.33
2022-10-14T01:35:56.704Z,19.15
2022-10-14T01:38:29.150Z,18.95
2022-10-14T01:41:03.006Z,18.42
2022-10-14T01:43:32.063Z,19.70
2022-10-14T01:46:02.283Z,18.27
2022-10-14T01:48:32.985Z,18.35
2022-10-14T01:51:03.129Z,18.73
2022-10-14T01:53:36.124Z,17.90
2022-10-14T01:56:03.899Z,19.02
2022-10-14T01:58:31.709Z,18.23
2022-10-14T02:00:58.129Z,17.00
2022-10-14T02:03:24.480Z,16.15
2022-10-14T02:06:03.680Z,14.63
2022-10-14T02:08:45.258Z,16.33
2022-10-14T02:11:15.697Z,15.88
2022-10-14T02:13:59.960Z,17.17
2022-10-14T02:16:41.278Z,19.42
2022-10-14T02:21:46.106Z,19.30
2022-10-14T02:24:15.176Z,20.05
2022-10-14T02:26:43.251Z,19.95
2022-10-14T02:29:09.753Z,22.63
2022-10-14T02:31:39.706Z,18.73
2022-10-14T02:34:09.403Z,19.60
2022-10-14T02:36:36.810Z,21.02
2022-10-14T02:39:04.258Z,22.20
2022-10-14T02:41:35.086Z,21.67
2022-10-14T02:44:01.962Z,23.38
2022-10-14T02:46:29.088Z,19.30
2022-10-14T02:48:55.459Z,21.10
2022-10-14T02:51:21.924Z,20.30
2022-10-14T02:53:48.305Z,20.02
2022-10-14T02:56:16.500Z,19.23
2022-10-14T02:58:42.855Z,22.08
2022-10-14T03:01:09.415Z,21.90
2022-10-14T03:03:36.201Z,20.88
2022-10-14T03:06:02.748Z,20.02
2022-10-14T03:08:29.170Z,20.35
2022-10-14T03:10:55.538Z,20.83
2022-10-14T03:13:21.915Z,19.67
2022-10-14T03:15:50.261Z,19.27
2022-10-14T03:18:17.089Z,19.00
2022-10-14T03:20:47.249Z,18.70
2022-10-14T03:23:14.548Z,20.17
2022-10-14T03:25:44.055Z,19.38
2022-10-14T03:28:10.947Z,18.48
2022-10-14T03:30:37.388Z,19.13
2022-10-14T03:33:03.972Z,17.10
2022-10-14T03:35:30.326Z,19.00
2022-10-14T03:37:56.711Z,18.13
2022-10-14T03:40:23.006Z,19.10
2022-10-14T03:42:49.667Z,17.65
2022-10-14T03:45:16.338Z,18.63
2022-10-14T03:47:42.718Z,17.00
2022-10-14T03:50:09.474Z,19.52
2022-10-14T03:52:36.143Z,18.20
2022-10-14T03:55:03.030Z,17.45
2022-10-14T03:57:29.367Z,17.77
2022-10-14T03:59:55.710Z,16.85
2022-10-14T04:02:22.438Z,18.20
2022-10-14T04:04:49.039Z,18.58
2022-10-14T04:07:15.334Z,18.67
2022-10-14T04:09:41.767Z,17.38
2022-10-14T04:12:08.156Z,16.88
2022-10-14T04:14:34.510Z,18.08
2022-10-14T04:17:00.803Z,18.73
2022-10-14T04:19:27.143Z,17.95
2022-10-14T04:21:53.445Z,18.30
2022-10-14T04:24:19.775Z,19.00
2022-10-14T04:26:46.095Z,18.40
2022-10-14T04:29:12.603Z,18.65
2022-10-14T04:31:38.907Z,18.75
2022-10-14T04:34:05.326Z,17.70
2022-10-14T04:36:31.712Z,18.75
2022-10-14T04:38:58.107Z,19.55
2022-10-14T04:41:24.449Z,18.40
2022-10-14T04:43:50.777Z,16.83
2022-10-14T04:46:17.399Z,18.85
2022-10-14T04:48:43.726Z,18.15
2022-10-14T04:51:10.619Z,19.55
2022-10-14T04:53:37.125Z,18.42
2022-10-14T04:56:03.547Z,18.45
2022-10-14T04:58:30.455Z,18.60
2022-10-14T05:00:56.885Z,17.65
2022-10-14T05:03:23.615Z,19.25
2022-10-14T05:05:50.813Z,17.63
2022-10-14T05:08:17.360Z,17.58
2022-10-14T05:10:43.908Z,16.63
2022-10-14T05:13:10.480Z,17.95
2022-10-14T05:15:36.823Z,18.08
2022-10-14T05:18:03.203Z,17.30
2022-10-14T05:20:29.540Z,15.85
2022-10-14T05:22:56.008Z,16.58
2022-10-14T05:25:22.356Z,16.58
2022-10-14T05:27:48.747Z,16.02
2022-10-14T05:30:15.315Z,15.45
2022-10-14T05:32:41.679Z,15.88
2022-10-14T05:35:08.894Z,17.23
2022-10-14T05:37:35.232Z,16.92
2022-10-14T05:40:01.619Z,17.38
2022-10-14T05:42:28.059Z,14.63
2022-10-14T05:44:54.378Z,16.42
2022-10-14T05:47:20.908Z,17.38
2022-10-14T05:49:47.307Z,16.90
2022-10-14T05:52:13.659Z,17.98
2022-10-14T05:54:40.055Z,17.60
2022-10-14T05:57:06.413Z,17.40
2022-10-14T05:59:34.645Z,18.13
2022-10-14T06:02:02.314Z,17.58
2022-10-14T06:04:28.700Z,16.98
2022-10-14T06:06:55.025Z,17.73
2022-10-14T06:09:21.776Z,18.42
2022-10-14T06:11:48.223Z,18.17
2022-10-14T06:14:14.865Z,16.88
2022-10-14T06:16:41.403Z,16.48
2022-10-14T06:19:07.807Z,18.50
2022-10-14T06:21:34.185Z,17.48
2022-10-14T06:24:00.541Z,17.35
2022-10-14T06:26:26.858Z,16.40
2022-10-14T06:28:53.253Z,16.48
2022-10-14T06:31:20.720Z,16.02
2022-10-14T06:33:47.063Z,17.13
2022-10-14T06:36:13.382Z,17.23
2022-10-14T06:38:40.411Z,14.45
2022-10-14T06:41:07.046Z,15.15
2022-10-14T06:43:35.130Z,15.45
2022-10-14T06:46:03.135Z,13.85
2022-10-14T06:48:29.517Z,14.80
2022-10-14T06:50:58.678Z,14.90
2022-10-14T06:53:25.012Z,15.70
2022-10-14T06:55:57.749Z,14.07
2022-10-14T06:58:24.115Z,14.43
2022-10-14T07:00:50.458Z,12.25
2022-10-14T07:03:17.309Z,12.38
2022-10-14T07:05:43.854Z,11.07
2022-10-14T07:08:14.519Z,11.38
2022-10-14T07:10:42.226Z,11.20
2022-10-14T07:13:08.550Z,9.68
2022-10-14T07:15:36.324Z,7.78
2022-10-14T07:18:04.548Z,8.73
2022-10-14T07:20:30.895Z,8.80
2022-10-14T07:22:57.485Z,8.93
2022-10-14T07:25:23.872Z,8.20
2022-10-14T07:27:53.127Z,7.63
2022-10-14T07:30:19.631Z,8.80
2022-10-14T07:32:45.980Z,6.13
2022-10-14T07:35:12.715Z,7.50
2022-10-14T07:37:39.226Z,7.00
2022-10-14T07:40:06.681Z,7.00
2022-10-14T07:42:34.168Z,7.60
2022-10-14T07:45:00.602Z,8.10
2022-10-14T07:47:26.951Z,6.60
2022-10-14T07:49:53.825Z,7.70
2022-10-14T07:52:20.239Z,7.50
2022-10-14T07:54:46.637Z,5.72
2022-10-14T07:57:13.010Z,6.90
2022-10-14T07:59:39.337Z,7.13
2022-10-14T08:02:05.712Z,7.35
2022-10-14T08:04:32.084Z,6.03
2022-10-14T08:06:58.556Z,6.97
2022-10-14T08:11:51.362Z,7.18
2022-10-14T08:14:17.765Z,6.38
2022-10-14T08:16:45.262Z,6.75
2022-10-14T08:19:14.539Z,6.65
2022-10-14T08:21:43.044Z,6.55
2022-10-14T08:24:10.015Z,6.82
2022-10-14T08:26:38.789Z,7.15
2022-10-14T08:29:09.878Z,7.15
2022-10-14T08:31:36.662Z,5.72
2022-10-14T08:34:03.233Z,7.10
2022-10-14T08:36:29.603Z,7.30
2022-10-14T08:38:56.331Z,7.55
2022-10-14T08:41:32.364Z,7.05
2022-10-14T08:44:09.453Z,6.80
2022-10-14T08:46:59.741Z,6.70
2022-10-14T08:50:01.372Z,6.55
2022-10-14T08:52:37.517Z,6.25
2022-10-14T08:55:21.846Z,6.22
2022-10-14T08:57:53.919Z,6.78
2022-10-14T09:00:21.856Z,6.38
2022-10-14T09:02:51.597Z,6.40
2022-10-14T09:05:25.090Z,6.15
2022-10-14T09:07:57.841Z,6.15
2022-10-14T09:10:39.393Z,5.70
2022-10-14T09:13:27.232Z,5.57
2022-10-14T09:16:01.896Z,5.60
2022-10-14T09:18:52.323Z,5.28
2022-10-14T09:21:47.839Z,5.80
2022-10-14T09:24:23.496Z,5.38
2022-10-14T09:27:17.609Z,5.60
2022-10-14T09:29:51.935Z,5.60
2022-10-14T09:32:29.590Z,4.72
2022-10-14T09:34:57.974Z,4.60
2022-10-14T09:37:29.976Z,4.78
2022-10-14T09:40:01.200Z,4.72
2022-10-14T09:45:09.960Z,4.57
2022-10-14T09:47:56.612Z,4.53
2022-10-14T09:50:44.197Z,4.78
2022-10-14T09:53:21.572Z,4.70
2022-10-14T09:55:52.321Z,5.43
2022-10-14T09:58:43.744Z,4.80
2022-10-14T10:03:47.424Z,4.28
2022-10-14T10:06:16.656Z,4.55
2022-10-14T10:08:57.328Z,4.15
2022-10-14T10:11:28.192Z,4.47
2022-10-14T10:13:54.871Z,5.00
2022-10-14T10:16:25.598Z,4.47
2022-10-14T10:18:55.113Z,4.57
2022-10-14T10:21:30.061Z,4.10
2022-10-14T10:24:03.166Z,4.00
2022-10-14T10:26:34.397Z,4.45
2022-10-14T10:31:53.599Z,4.03
2022-10-14T10:34:51.015Z,4.43
2022-10-14T10:37:17.310Z,3.88
2022-10-14T10:39:53.551Z,4.18
2022-10-14T10:42:26.984Z,4.80
2022-10-14T10:45:15.957Z,4.53
2022-10-14T10:48:51.128Z,4.90
2022-10-14T10:51:40.409Z,4.78
2022-10-14T10:54:20.190Z,5.22
2022-10-14T10:56:57.557Z,5.03
2022-10-14T10:59:43.218Z,3.95
2022-10-14T11:02:12.369Z,5.53
2022-10-14T11:04:47.875Z,4.75
2022-10-14T11:07:59.535Z,4.93
2022-10-14T11:10:53.638Z,4.72
2022-10-14T11:13:36.713Z,4.82
2022-10-14T11:16:08.942Z,4.90
2022-10-14T11:19:01.128Z,5.13
2022-10-14T11:21:39.155Z,4.63
2022-10-14T11:24:42.132Z,5.00
2022-10-14T11:27:24.901Z,4.93
2022-10-14T11:30:09.007Z,5.20
2022-10-14T11:33:00.408Z,4.78
2022-10-14T11:38:23.997Z,4.95
2022-10-14T11:41:05.673Z,4.80
2022-10-14T11:43:48.905Z,5.32
2022-10-14T11:46:21.292Z,5.05
2022-10-14T11:49:22.229Z,4.85
2022-10-14T11:51:57.479Z,4.75
2022-10-14T11:54:31.571Z,5.05
2022-10-14T11:57:07.437Z,5.15
2022-10-14T11:59:50.543Z,4.50
2022-10-14T12:02:28.596Z,4.13
2022-10-14T12:05:21.191Z,4.20
2022-10-14T12:08:09.059Z,4.20
2022-10-14T12:10:42.908Z,4.25
2022-10-14T12:13:15.467Z,3.97
2022-10-14T12:15:48.794Z,3.47
2022-10-14T12:18:15.111Z,3.58
2022-10-14T12:21:05.242Z,3.50
2022-10-14T12:23:37.798Z,3.80
2022-10-14T12:26:14.225Z,3.65
2022-10-14T12:28:41.015Z,3.58
2022-10-14T12:31:38.707Z,3.60
2022-10-14T12:34:11.398Z,2.85
2022-10-14T12:36:39.590Z,3.00
2022-10-14T12:39:18.120Z,2.85
2022-10-14T12:41:55.039Z,2.55
2022-10-14T12:44:32.494Z,3.17
2022-10-14T12:46:58.900Z,3.25
2022-10-14T12:49:31.271Z,3.17
2022-10-14T12:52:02.071Z,3.30
2022-10-14T12:54:30.270Z,3.08
2022-10-14T12:57:03.557Z,2.90
2022-10-14T12:59:33.442Z,3.10
2022-10-14T13:02:04.735Z,3.50
2022-10-14T13:04:32.512Z,3.30
2022-10-14T13:07:45.352Z,3.00
2022-10-14T13:10:47.829Z,2.88
2022-10-14T13:13:44.673Z,2.75
2022-10-14T13:16:31.225Z,2.70
2022-10-14T13:18:59.145Z,3.30
2022-10-14T13:21:34.774Z,3.50
2022-10-14T13:24:06.101Z,3.40
2022-10-14T13:26:37.934Z,3.10
2022-10-14T13:29:45.859Z,3.65
2022-10-14T13:32:33.456Z,3.70
2022-10-14T13:35:18.986Z,3.53
2022-10-14T13:37:58.298Z,3.42
2022-10-14T13:40:36.880Z,3.58
2022-10-14T13:43:13.188Z,3.78
2022-10-14T13:45:42.987Z,3.78
2022-10-14T13:48:16.751Z,4.00
2022-10-14T13:50:44.201Z,4.18
2022-10-14T13:53:19.111Z,4.50
2022-10-14T13:55:53.860Z,4.50
2022-10-14T13:58:22.707Z,4.10
2022-10-14T14:01:02.224Z,4.63
2022-10-14T14:03:31.213Z,4.50
2022-10-14T14:05:59.308Z,4.93
2022-10-14T14:08:44.846Z,4.38
2022-10-14T14:11:19.277Z,4.00
2022-10-14T14:14:00.655Z,4.65
2022-10-14T14:16:52.124Z,4.15
2022-10-14T14:19:29.160Z,3.97
2022-10-14T14:22:13.854Z,4.13
2022-10-14T14:24:40.312Z,4.30
2022-10-14T14:27:12.845Z,4.43
2022-10-14T14:29:42.676Z,4.40
2022-10-14T14:32:16.104Z,4.30
2022-10-14T14:34:45.383Z,4.45
2022-10-14T14:37:44.042Z,5.70
2022-10-14T14:40:17.833Z,5.55
2022-10-14T14:42:59.728Z,5.22
2022-10-14T14:45:33.761Z,4.80
2022-10-14T14:48:06.355Z,5.32
2022-10-14T14:50:36.577Z,5.07
2022-10-14T14:53:13.623Z,4.50
2022-10-14T14:56:07.977Z,4.97
2022-10-14T14:58:51.374Z,5.10
2022-10-14T15:01:28.828Z,4.47
2022-10-14T15:04:12.460Z,4.57
2022-10-14T15:06:40.749Z,4.10
2022-10-14T15:09:30.054Z,3.83
2022-10-14T15:12:00.313Z,4.22
2022-10-14T15:14:45.071Z,4.60
2022-10-14T15:17:38.924Z,4.80
2022-10-14T15:20:05.536Z,9.10
2022-10-14T15:22:36.708Z,5.95
2022-10-14T15:27:37.296Z,4.60
2022-10-14T15:30:17.812Z,5.45
2022-10-14T15:32:44.678Z,5.60
2022-10-14T15:35:19.681Z,9.65
2022-10-14T15:37:47.074Z,8.23
2022-10-14T15:40:18.935Z,6.57
2022-10-14T15:42:47.030Z,6.57
2022-10-14T15:45:14.127Z,6.25
2022-10-14T15:47:41.126Z,6.38
2022-10-14T15:50:19.374Z,6.35
2022-10-14T15:52:45.847Z,6.60
2022-10-14T15:55:19.536Z,6.32
2022-10-14T15:57:47.485Z,5.97
2022-10-14T16:00:14.256Z,6.18
2022-10-14T16:02:43.408Z,6.32
2022-10-14T16:05:25.659Z,6.95
2022-10-14T16:07:52.103Z,6.65
2022-10-14T16:10:21.830Z,7.55
2022-10-14T16:12:48.832Z,7.65
2022-10-14T16:15:32.074Z,7.65
2022-10-14T16:17:58.602Z,7.65
2022-10-14T16:20:25.395Z,8.57
2022-10-14T16:22:51.822Z,7.60
2022-10-14T16:25:40.132Z,7.85
2022-10-14T16:28:10.045Z,7.78
2022-10-14T16:30:39.466Z,9.77
2022-10-14T16:33:06.210Z,9.20
2022-10-14T16:35:32.780Z,12.93
2022-10-14T16:37:59.242Z,12.13
2022-10-14T16:40:25.907Z,9.10
2022-10-14T16:42:52.312Z,9.60
2022-10-14T16:45:18.664Z,12.23
2022-10-14T16:47:45.028Z,8.18
2022-10-14T16:50:12.210Z,7.82
2022-10-14T16:52:58.905Z,8.23
2022-10-14T16:55:27.436Z,7.97
2022-10-14T16:57:54.065Z,8.30
2022-10-14T17:00:20.412Z,8.18
2022-10-14T17:02:47.226Z,8.43
2022-10-14T17:05:14.194Z,9.60
2022-10-14T17:07:40.639Z,9.25
2022-10-14T17:10:07.501Z,9.52
2022-10-14T17:12:33.830Z,9.73
2022-10-14T17:15:00.274Z,12.77
2022-10-14T17:17:26.617Z,9.75
2022-10-14T17:19:55.543Z,9.40
2022-10-14T17:22:22.448Z,10.18
2022-10-14T17:24:50.122Z,10.75
2022-10-14T17:27:19.404Z,10.63
2022-10-14T17:29:45.962Z,8.75
2022-10-14T17:32:12.417Z,9.57
2022-10-14T17:34:38.715Z,9.85
2022-10-14T17:37:05.301Z,10.40
2022-10-14T17:39:31.805Z,10.32
2022-10-14T17:41:58.360Z,10.05
2022-10-14T17:44:24.782Z,13.07
2022-10-14T17:46:51.229Z,13.82
2022-10-14T17:49:17.578Z,12.10
2022-10-14T17:51:44.745Z,10.90
2022-10-14T17:54:12.046Z,10.38
2022-10-14T17:56:39.551Z,11.07
2022-10-14T17:59:10.283Z,10.77
2022-10-14T18:01:37.696Z,11.88
2022-10-14T18:04:23.051Z,11.85
2022-10-14T18:06:49.378Z,11.95
2022-10-14T18:09:15.790Z,11.63
2022-10-14T18:14:31.388Z,11.18
2022-10-14T18:16:59.112Z,11.50
2022-10-14T18:19:25.730Z,11.70
2022-10-14T18:21:52.810Z,12.50
2022-10-14T18:24:19.821Z,13.55
2022-10-14T18:26:48.975Z,13.32
2022-10-14T18:29:15.340Z,14.98
2022-10-14T18:31:41.858Z,13.50
2022-10-14T18:34:11.235Z,14.10
2022-10-14T18:36:37.942Z,14.23
2022-10-14T18:39:06.824Z,19.08
2022-10-14T18:41:33.674Z,15.90
2022-10-14T18:44:00.357Z,18.42
2022-10-14T18:46:29.102Z,16.08
2022-10-14T18:48:58.015Z,14.07
2022-10-14T18:51:29.199Z,12.40
2022-10-14T18:56:41.531Z,11.18
2022-10-14T18:59:10.987Z,12.90
2022-10-14T19:01:39.097Z,13.60
2022-10-14T19:04:08.267Z,12.93
2022-10-14T19:06:35.264Z,14.10
2022-10-14T19:09:02.069Z,12.88
2022-10-14T19:11:32.595Z,13.55
2022-10-14T19:14:03.193Z,13.35
2022-10-14T19:16:32.316Z,13.13
2022-10-14T19:19:18.215Z,15.25
2022-10-14T19:21:47.491Z,14.10
2022-10-14T19:24:14.148Z,12.57
2022-10-14T19:26:43.353Z,12.63
2022-10-14T19:29:12.691Z,12.63
2022-10-14T19:31:39.945Z,12.82
2022-10-14T19:34:08.751Z,11.88
2022-10-14T19:36:37.883Z,12.13
2022-10-14T19:39:05.255Z,11.70
2022-10-14T19:41:33.781Z,12.45
2022-10-14T19:44:00.622Z,11.60
2022-10-14T19:46:28.796Z,11.52
2022-10-14T19:48:57.523Z,11.00
2022-10-14T19:51:24.265Z,11.75
2022-10-14T19:53:51.439Z,12.07
2022-10-14T19:56:17.805Z,12.15
2022-10-14T19:58:45.016Z,13.10
2022-10-14T20:01:14.597Z,13.27
2022-10-14T20:03:41.970Z,12.90
2022-10-14T20:06:09.753Z,13.38
2022-10-14T20:08:38.151Z,12.32
2022-10-14T20:11:07.453Z,13.27
2022-10-14T20:13:34.197Z,13.68
2022-10-14T20:16:02.033Z,13.25
2022-10-14T20:18:29.669Z,13.80
2022-10-14T20:20:56.826Z,14.23
2022-10-14T20:23:24.492Z,14.18
2022-10-14T20:25:50.891Z,14.10
2022-10-14T20:28:19.533Z,14.38
2022-10-14T20:30:47.208Z,13.70
2022-10-14T20:33:14.294Z,14.95
2022-10-14T20:35:40.768Z,14.90
2022-10-14T20:38:07.132Z,15.85
2022-10-14T20:40:34.949Z,14.70
2022-10-14T20:43:02.000Z,15.23
2022-10-14T20:45:28.365Z,15.50
2022-10-14T20:47:54.763Z,15.07
2022-10-14T20:50:22.267Z,15.05
2022-10-14T20:52:49.206Z,14.85
2022-10-14T20:55:15.790Z,14.27
2022-10-14T20:57:42.182Z,13.35
2022-10-14T21:00:09.769Z,13.25
2022-10-14T21:02:36.359Z,13.88
2022-10-14T21:05:02.839Z,13.65
2022-10-14T21:07:29.186Z,13.65
2022-10-14T21:09:55.556Z,13.77
2022-10-14T21:12:22.180Z,14.85
2022-10-14T21:14:48.760Z,13.77
2022-10-14T21:17:15.110Z,13.68
2022-10-14T21:19:41.471Z,14.40
2022-10-14T21:22:09.203Z,15.13
2022-10-14T21:24:36.142Z,15.50
2022-10-14T21:27:02.560Z,13.63
2022-10-14T21:29:28.909Z,13.70
2022-10-14T21:31:55.286Z,14.35
2022-10-14T21:34:24.609Z,13.90
2022-10-14T21:36:50.974Z,14.13
2022-10-14T21:39:18.004Z,14.30
2022-10-14T21:41:44.975Z,13.85
2022-10-14T21:44:15.689Z,14.68
2022-10-14T21:46:42.063Z,12.93
2022-10-14T21:49:10.583Z,14.40
2022-10-14T21:51:37.402Z,14.05
2022-10-14T21:54:04.184Z,13.45
2022-10-14T21:56:30.766Z,14.00
2022-10-14T21:58:57.663Z,14.77
2022-10-14T22:01:29.806Z,14.27
2022-10-14T22:04:03.448Z,14.00
2022-10-14T22:06:32.270Z,14.50
2022-10-14T22:08:59.952Z,12.95
2022-10-14T22:11:34.967Z,15.45
2022-10-14T22:14:03.323Z,13.63
2022-10-14T22:16:30.366Z,14.10
2022-10-14T22:18:59.748Z,13.95
2022-10-14T22:21:28.579Z,14.07
2022-10-14T22:23:55.039Z,13.88
2022-10-14T22:26:25.000Z,13.88
2022-10-14T22:29:00.149Z,13.68
2022-10-14T22:31:27.849Z,13.23
2022-10-14T22:33:54.638Z,12.38
2022-10-14T22:36:24.339Z,14.25
2022-10-14T22:38:52.860Z,13.13
2022-10-14T22:41:19.913Z,12.85
2022-10-14T22:43:48.146Z,13.77
2022-10-14T22:46:16.190Z,14.60
2022-10-14T22:48:42.840Z,15.02
2022-10-14T22:51:14.608Z,15.80
2022-10-14T22:53:42.512Z,15.02
2022-10-14T22:56:11.251Z,14.30
2022-10-14T22:58:37.896Z,15.52
2022-10-14T23:01:09.020Z,15.32
2022-10-14T23:06:05.113Z,13.85
2022-10-14T23:08:32.744Z,16.30
2022-10-14T23:10:59.689Z,15.95
2022-10-14T23:13:26.160Z,15.63
2022-10-14T23:16:03.164Z,14.80
2022-10-14T23:18:31.743Z,15.02
2022-10-14T23:20:58.214Z,15.77
2022-10-14T23:23:24.674Z,14.35
2022-10-14T23:25:51.060Z,14.68
2022-10-14T23:28:17.465Z,15.23
2022-10-14T23:30:43.835Z,14.73
2022-10-14T23:33:11.702Z,14.20
2022-10-14T23:35:38.804Z,14.82
2022-10-14T23:38:05.242Z,14.75
2022-10-14T23:40:31.619Z,14.70
2022-10-14T23:42:58.230Z,14.13
2022-10-14T23:45:24.640Z,13.68
2022-10-14T23:47:50.967Z,14.50
2022-10-14T23:50:17.504Z,14.43
2022-10-14T23:52:46.871Z,13.95
2022-10-14T23:55:14.178Z,14.13
2022-10-14T23:57:40.501Z,14.50
